Aviation

Port-au-Prince

FTHA31 MTPP 121800
TAF MTPP 121705Z 1218/1318 06007KT 9999 FEW027 BECMG 1219/1223 10012G22KT FM130400 VRB02KT 7000 NSC BECMG 1314/1318 09012KT
=


Cap-Haïtien

FTHA31 MTCH 121800
TAF MTCH 121709Z 1218/1318 03007KT 9999 SCT030CB PROB30 TEMPO 1221/1301 4000 SHRA BECMG 1304/1308 VRB02KT 9000 NSW NSC TEMPO 1316/1318 05012KT
=